createdAt,value
2018-08-31T00:00:57.881Z,44.09
2018-08-31T00:01:57.613Z,43.80
2018-08-31T00:02:57.112Z,43.32
2018-08-31T00:03:57.800Z,42.47
2018-08-31T00:04:57.903Z,42.37
2018-08-31T00:05:57.427Z,42.18
2018-08-31T00:06:57.999Z,42.18
2018-08-31T00:07:57.941Z,41.89
2018-08-31T00:08:57.890Z,41.61
2018-08-31T00:09:57.933Z,41.33
2018-08-31T00:11:18.686Z,40.75
2018-08-31T00:12:40.671Z,40.56
2018-08-31T00:14:23.855Z,40.47
2018-08-31T00:15:45.791Z,40.28
2018-08-31T00:16:46.449Z,40.18
2018-08-31T00:17:46.099Z,39.32
2018-08-31T00:18:46.980Z,38.75
2018-08-31T00:19:46.427Z,38.28
2018-08-31T00:20:45.820Z,37.80
2018-08-31T00:21:46.618Z,37.61
2018-08-31T00:23:07.623Z,38.18
2018-08-31T00:24:08.539Z,38.95
2018-08-31T00:25:08.520Z,39.51
2018-08-31T00:26:08.249Z,40.09
2018-08-31T00:27:08.027Z,40.66
2018-08-31T00:28:08.881Z,40.85
2018-08-31T00:29:08.652Z,41.04
2018-08-31T00:30:08.416Z,40.94
2018-08-31T00:31:07.949Z,40.85
2018-08-31T00:32:08.836Z,41.23
2018-08-31T00:33:08.603Z,41.59
2018-08-31T00:34:08.217Z,40.85
2018-08-31T00:35:07.673Z,40.66
2018-08-31T00:36:08.081Z,41.04
2018-08-31T00:37:07.922Z,41.52
2018-08-31T00:38:08.744Z,41.61
2018-08-31T00:39:08.266Z,41.71
2018-08-31T00:40:07.662Z,41.61
2018-08-31T00:41:08.270Z,41.61
2018-08-31T00:42:07.910Z,41.40
2018-08-31T00:43:29.968Z,40.83
2018-08-31T00:44:51.345Z,40.66
2018-08-31T00:45:51.823Z,41.23
2018-08-31T00:47:35.200Z,42.56
2018-08-31T00:48:36.062Z,43.13
2018-08-31T00:49:35.569Z,43.42
2018-08-31T00:50:36.085Z,43.80
2018-08-31T00:51:35.638Z,43.61
2018-08-31T00:52:36.039Z,42.37
2018-08-31T00:53:35.876Z,41.80
2018-08-31T00:54:35.435Z,41.61
2018-08-31T00:55:35.776Z,41.71
2018-08-31T00:56:36.173Z,41.80
2018-08-31T00:57:35.589Z,40.94
2018-08-31T00:58:36.027Z,41.04
2018-08-31T00:59:35.807Z,41.11
2018-08-31T01:00:35.264Z,41.02
2018-08-31T01:01:35.832Z,40.45
2018-08-31T01:02:36.412Z,40.26
2018-08-31T01:03:57.613Z,39.21
2018-08-31T01:04:58.221Z,39.31
2018-08-31T01:05:57.867Z,39.21
2018-08-31T01:06:58.351Z,38.83
2018-08-31T01:07:57.935Z,38.73
2018-08-31T01:09:19.797Z,38.54
2018-08-31T01:10:20.235Z,38.26
2018-08-31T01:11:19.935Z,38.17
2018-08-31T01:12:20.698Z,37.78
2018-08-31T01:13:20.082Z,37.40
2018-08-31T01:14:20.887Z,36.55
2018-08-31T01:15:20.319Z,35.88
2018-08-31T01:16:20.624Z,35.60
2018-08-31T01:17:19.994Z,35.60
2018-08-31T01:18:20.753Z,35.69
2018-08-31T01:19:20.482Z,35.78
2018-08-31T01:20:19.967Z,35.78
2018-08-31T01:21:20.460Z,35.78
2018-08-31T01:22:19.812Z,35.40
2018-08-31T01:23:20.210Z,35.31
2018-08-31T01:24:41.606Z,34.94
2018-08-31T01:25:42.231Z,34.56
2018-08-31T01:26:41.950Z,34.66
2018-08-31T01:27:42.664Z,35.04
2018-08-31T01:28:42.054Z,35.13
2018-08-31T01:29:42.547Z,35.13
2018-08-31T01:30:42.011Z,35.23
2018-08-31T01:31:42.505Z,35.52
2018-08-31T01:32:41.884Z,35.61
2018-08-31T01:33:42.237Z,35.89
2018-08-31T01:35:04.942Z,35.60
2018-08-31T01:36:05.635Z,35.04
2018-08-31T01:37:05.167Z,35.12
2018-08-31T01:38:05.479Z,35.21
2018-08-31T01:39:04.948Z,35.40
2018-08-31T01:40:05.349Z,35.50
2018-08-31T01:41:05.743Z,35.60
2018-08-31T01:42:05.095Z,35.50
2018-08-31T01:43:05.514Z,35.40
2018-08-31T01:44:05.157Z,35.50
2018-08-31T01:45:05.813Z,35.69
2018-08-31T01:46:05.578Z,35.69
2018-08-31T01:47:04.903Z,35.60
2018-08-31T01:48:05.278Z,35.78
2018-08-31T01:49:05.881Z,35.69
2018-08-31T01:50:05.478Z,35.50
2018-08-31T01:51:06.021Z,35.31
2018-08-31T01:52:05.721Z,34.92
2018-08-31T01:53:05.196Z,34.45
2018-08-31T01:54:05.878Z,34.26
2018-08-31T01:55:05.305Z,34.07
2018-08-31T01:56:04.952Z,33.97
2018-08-31T01:57:05.297Z,34.36
2018-08-31T01:58:04.748Z,34.74
2018-08-31T01:59:05.217Z,35.02
2018-08-31T02:00:05.713Z,35.21
2018-08-31T02:01:05.404Z,35.12
2018-08-31T02:02:05.081Z,35.21
2018-08-31T02:03:05.679Z,35.40
2018-08-31T02:04:26.375Z,35.60
2018-08-31T02:05:27.005Z,35.60
2018-08-31T02:06:26.521Z,35.60
2018-08-31T02:07:48.225Z,35.78
2018-08-31T02:09:31.421Z,35.31
2018-08-31T02:10:31.918Z,35.40
2018-08-31T02:11:56.835Z,35.88
2018-08-31T02:12:56.513Z,36.26
2018-08-31T02:14:17.214Z,36.16
2018-08-31T02:15:17.546Z,36.45
2018-08-31T02:16:18.012Z,36.26
2018-08-31T02:17:17.278Z,36.35
2018-08-31T02:18:17.608Z,36.55
2018-08-31T02:19:18.150Z,36.83
2018-08-31T02:20:17.723Z,36.83
2018-08-31T02:21:18.063Z,36.74
2018-08-31T02:22:17.526Z,36.62
2018-08-31T02:23:17.523Z,36.53
2018-08-31T02:24:17.866Z,36.15
2018-08-31T02:25:17.566Z,35.96
2018-08-31T02:26:17.941Z,35.58
2018-08-31T02:27:17.416Z,35.48
2018-08-31T02:28:17.694Z,35.38
2018-08-31T02:29:18.136Z,35.29
2018-08-31T02:30:17.526Z,35.29
2018-08-31T02:31:17.927Z,35.29
2018-08-31T02:32:17.216Z,35.29
2018-08-31T02:33:17.710Z,35.29
2018-08-31T02:34:18.258Z,35.10
2018-08-31T02:35:17.788Z,34.63
2018-08-31T02:36:38.669Z,34.24
2018-08-31T02:37:38.958Z,34.05
2018-08-31T02:38:39.287Z,33.69
2018-08-31T02:39:38.882Z,33.31
2018-08-31T02:40:39.412Z,33.31
2018-08-31T02:41:38.903Z,33.50
2018-08-31T02:42:39.253Z,33.67
2018-08-31T02:43:38.692Z,33.96
2018-08-31T02:44:39.163Z,33.96
2018-08-31T02:45:39.595Z,34.05
2018-08-31T02:46:39.084Z,33.86
2018-08-31T02:47:39.608Z,33.67
2018-08-31T02:48:39.200Z,33.31
2018-08-31T02:49:39.910Z,33.22
2018-08-31T02:50:39.755Z,33.31
2018-08-31T02:51:39.250Z,33.67
2018-08-31T02:52:38.720Z,33.96
2018-08-31T02:53:39.271Z,34.24
2018-08-31T02:54:39.348Z,34.44
2018-08-31T02:55:38.876Z,34.34
2018-08-31T02:56:39.295Z,33.96
2018-08-31T02:57:39.054Z,34.05
2018-08-31T02:58:38.723Z,34.24
2018-08-31T02:59:39.270Z,34.34
2018-08-31T03:00:38.525Z,34.44
2018-08-31T03:01:38.913Z,34.44
2018-08-31T03:02:39.406Z,34.44
2018-08-31T03:03:39.311Z,34.44
2018-08-31T03:04:38.924Z,34.34
2018-08-31T03:05:39.658Z,34.24
2018-08-31T03:06:39.201Z,34.24
2018-08-31T03:07:38.587Z,34.24
2018-08-31T03:08:38.838Z,33.96
2018-08-31T03:09:39.603Z,33.86
2018-08-31T03:10:39.456Z,33.77
2018-08-31T03:11:38.926Z,33.67
2018-08-31T03:12:39.394Z,33.58
2018-08-31T03:13:38.720Z,33.48
2018-08-31T03:14:39.265Z,33.39
2018-08-31T03:16:41.884Z,32.91
2018-08-31T03:17:42.531Z,32.82
2018-08-31T03:19:03.406Z,32.62
2018-08-31T03:20:04.021Z,32.62
2018-08-31T03:21:03.628Z,32.72
2018-08-31T03:22:04.259Z,32.72
2018-08-31T03:23:03.831Z,32.72
2018-08-31T03:24:04.125Z,32.72
2018-08-31T03:25:27.128Z,32.62
2018-08-31T03:26:27.571Z,32.62
2018-08-31T03:27:28.042Z,32.53
2018-08-31T03:28:27.435Z,32.62
2018-08-31T03:29:27.896Z,32.82
2018-08-31T03:30:48.845Z,33.01
2018-08-31T03:31:49.543Z,33.20
2018-08-31T03:32:49.384Z,33.58
2018-08-31T03:33:48.786Z,33.86
2018-08-31T03:34:49.258Z,34.24
2018-08-31T03:35:49.763Z,34.72
2018-08-31T03:36:49.440Z,35.67
2018-08-31T03:37:49.285Z,35.96
2018-08-31T03:38:49.661Z,36.05
2018-08-31T03:39:49.133Z,36.43
2018-08-31T03:40:49.675Z,36.72
2018-08-31T03:41:49.259Z,36.72
2018-08-31T03:43:31.097Z,36.62
2018-08-31T03:44:52.695Z,36.72
2018-08-31T03:45:52.968Z,36.72
2018-08-31T03:46:53.504Z,36.81
2018-08-31T03:47:53.075Z,36.81
2018-08-31T03:49:14.625Z,36.72
2018-08-31T03:50:15.256Z,36.05
2018-08-31T03:51:27.776Z,35.38
2018-08-31T03:52:15.117Z,35.19
2018-08-31T03:53:15.453Z,35.00
2018-08-31T03:54:36.016Z,34.15
2018-08-31T03:55:57.526Z,33.67
2018-08-31T03:56:58.013Z,33.67
2018-08-31T03:57:58.427Z,33.39
2018-08-31T03:59:19.225Z,33.29
2018-08-31T04:00:19.630Z,32.72
2018-08-31T04:01:19.216Z,32.24
2018-08-31T04:02:20.200Z,31.77
2018-08-31T04:03:19.583Z,31.48
2018-08-31T04:04:20.166Z,31.58
2018-08-31T04:05:19.881Z,31.48
2018-08-31T04:06:19.281Z,31.39
2018-08-31T04:07:19.793Z,31.20
2018-08-31T04:08:40.451Z,31.20
2018-08-31T04:09:41.230Z,31.21
2018-08-31T04:10:40.872Z,31.39
2018-08-31T04:11:40.601Z,31.48
2018-08-31T04:12:41.350Z,31.68
2018-08-31T04:13:41.251Z,31.87
2018-08-31T04:14:40.603Z,32.06
2018-08-31T04:15:41.067Z,32.15
2018-08-31T04:17:01.699Z,32.15
2018-08-31T04:18:02.199Z,31.96
2018-08-31T04:19:02.766Z,31.58
2018-08-31T04:20:02.081Z,31.10
2018-08-31T04:21:02.847Z,31.01
2018-08-31T04:22:23.597Z,31.10
2018-08-31T04:23:24.342Z,31.29
2018-08-31T04:24:23.893Z,31.48
2018-08-31T04:25:45.417Z,31.58
2018-08-31T04:26:45.802Z,31.68
2018-08-31T04:27:46.308Z,31.39
2018-08-31T04:28:45.769Z,31.48
2018-08-31T04:29:46.247Z,31.48
2018-08-31T04:30:45.943Z,31.48
2018-08-31T04:31:45.512Z,31.39
2018-08-31T04:32:46.311Z,31.39
2018-08-31T04:34:07.342Z,31.58
2018-08-31T04:35:08.369Z,31.96
2018-08-31T04:36:29.698Z,32.24
2018-08-31T04:37:30.269Z,32.34
2018-08-31T04:38:32.995Z,32.43
2018-08-31T04:39:42.603Z,32.72
2018-08-31T04:40:30.101Z,32.82
2018-08-31T04:41:30.358Z,33.01
2018-08-31T04:42:30.131Z,32.91
2018-08-31T04:43:29.969Z,33.10
2018-08-31T04:44:30.629Z,33.10
2018-08-31T04:45:30.204Z,33.39
2018-08-31T04:46:30.148Z,33.48
2018-08-31T04:47:30.097Z,33.47
2018-08-31T04:48:29.713Z,33.47
2018-08-31T04:49:30.232Z,33.37
2018-08-31T04:50:29.717Z,33.18
2018-08-31T04:51:30.260Z,33.20
2018-08-31T04:52:29.790Z,33.29
2018-08-31T04:53:30.220Z,33.58
2018-08-31T04:54:29.771Z,33.77
2018-08-31T04:55:30.305Z,34.05
2018-08-31T04:56:29.784Z,34.24
2018-08-31T04:57:30.351Z,34.53
2018-08-31T04:58:30.063Z,34.91
2018-08-31T04:59:30.052Z,35.29
2018-08-31T05:00:30.603Z,35.67
2018-08-31T05:01:30.272Z,36.05
2018-08-31T05:02:29.696Z,36.15
2018-08-31T05:03:51.895Z,36.62
2018-08-31T05:04:52.458Z,36.72
2018-08-31T05:05:52.149Z,36.62
2018-08-31T05:06:52.787Z,36.81
2018-08-31T05:07:52.721Z,36.91
2018-08-31T05:08:52.427Z,37.00
2018-08-31T05:09:52.017Z,37.00
2018-08-31T05:10:52.511Z,36.91
2018-08-31T05:11:52.135Z,36.72
2018-08-31T05:12:53.284Z,36.43
2018-08-31T05:13:51.877Z,36.43
2018-08-31T05:14:52.495Z,36.33
2018-08-31T05:16:13.673Z,37.95
2018-08-31T05:17:14.696Z,40.14
2018-08-31T05:18:14.558Z,41.28
2018-08-31T05:19:35.485Z,42.33
2018-08-31T05:20:36.323Z,42.24
2018-08-31T05:21:57.400Z,42.43
2018-08-31T05:22:58.489Z,41.28
2018-08-31T05:24:19.689Z,38.64
2018-08-31T05:25:40.878Z,37.40
2018-08-31T05:27:03.224Z,36.35
2018-08-31T05:28:04.155Z,35.88
2018-08-31T05:29:02.980Z,35.69
2018-08-31T05:30:03.633Z,35.50
2018-08-31T05:31:03.147Z,35.50
2018-08-31T05:32:04.090Z,35.60
2018-08-31T05:33:03.683Z,35.97
2018-08-31T05:34:03.702Z,36.07
2018-08-31T05:35:03.525Z,36.94
2018-08-31T05:36:03.184Z,36.94
2018-08-31T05:37:25.746Z,38.09
2018-08-31T05:38:25.470Z,39.04
2018-08-31T05:39:26.418Z,39.99
2018-08-31T05:40:47.267Z,40.47
2018-08-31T05:42:00.213Z,40.09
2018-08-31T05:42:48.832Z,39.61
2018-08-31T05:43:49.282Z,39.61
2018-08-31T05:44:47.728Z,40.58
2018-08-31T05:45:48.205Z,41.35
2018-08-31T05:46:47.739Z,41.53
2018-08-31T05:47:47.762Z,42.87
2018-08-31T05:48:48.690Z,43.06
2018-08-31T05:49:48.626Z,44.04
2018-08-31T05:50:48.139Z,45.28
2018-08-31T05:52:09.218Z,44.70
2018-08-31T05:53:53.098Z,45.65
2018-08-31T05:55:00.052Z,43.65
2018-08-31T05:55:52.835Z,43.27
2018-08-31T05:56:53.385Z,42.89
2018-08-31T05:57:53.094Z,41.84
2018-08-31T05:59:14.616Z,41.36
2018-08-31T06:00:15.637Z,41.65
2018-08-31T06:01:15.555Z,42.41
2018-08-31T06:02:15.659Z,43.18
2018-08-31T06:03:15.159Z,43.75
2018-08-31T06:04:14.846Z,43.56
2018-08-31T06:05:15.436Z,44.32
2018-08-31T06:06:15.649Z,44.04
2018-08-31T06:07:15.447Z,43.84
2018-08-31T06:08:15.203Z,43.27
2018-08-31T06:09:15.129Z,44.13
2018-08-31T06:10:14.662Z,45.84
2018-08-31T06:11:15.325Z,47.11
2018-08-31T06:12:15.002Z,47.68
2018-08-31T06:13:16.413Z,48.73
2018-08-31T06:14:15.024Z,49.30
2018-08-31T06:15:14.740Z,50.07
2018-08-31T06:16:15.535Z,50.07
2018-08-31T06:17:38.629Z,50.16
2018-08-31T06:18:39.312Z,51.97
2018-08-31T06:19:38.941Z,50.83
2018-08-31T06:20:38.923Z,51.62
2018-08-31T06:21:39.184Z,53.53
2018-08-31T06:22:38.756Z,54.67
2018-08-31T06:23:39.258Z,53.81
2018-08-31T06:24:39.197Z,56.87
2018-08-31T06:25:38.958Z,56.67
2018-08-31T06:26:42.203Z,59.44
2018-08-31T06:28:00.369Z,60.87
2018-08-31T06:29:01.443Z,60.87
2018-08-31T06:30:01.612Z,62.30
2018-08-31T06:31:01.395Z,63.16
2018-08-31T06:32:01.070Z,64.21
2018-08-31T06:33:00.811Z,65.36
2018-08-31T06:34:00.644Z,64.02
2018-08-31T06:35:10.586Z,67.01
2018-08-31T06:36:01.442Z,67.77
2018-08-31T06:37:01.147Z,71.06
2018-08-31T06:38:00.917Z,75.39
2018-08-31T06:39:00.627Z,82.84
2018-08-31T06:40:00.556Z,87.00
2018-08-31T06:41:01.460Z,91.49
2018-08-31T06:42:01.629Z,93.40
2018-08-31T06:43:01.458Z,95.89
2018-08-31T06:44:01.046Z,94.84
2018-08-31T06:45:01.006Z,92.83
2018-08-31T06:46:22.366Z,97.66
2018-08-31T06:47:22.969Z,99.99
2018-08-31T06:48:22.752Z,99.99
2018-08-31T06:49:22.510Z,99.99
2018-08-31T06:50:23.563Z,99.99
2018-08-31T06:51:24.169Z,99.99
2018-08-31T06:52:22.921Z,99.99
2018-08-31T06:53:22.692Z,99.99
2018-08-31T06:54:22.485Z,99.99
2018-08-31T06:55:44.793Z,99.99
2018-08-31T06:56:45.354Z,99.99
2018-08-31T06:58:06.557Z,99.99
2018-08-31T06:59:07.570Z,99.99
2018-08-31T07:00:07.321Z,99.99
2018-08-31T07:01:07.389Z,99.99
2018-08-31T07:02:51.643Z,99.99
2018-08-31T07:03:53.894Z,99.99
2018-08-31T07:04:56.000Z,99.99
2018-08-31T07:05:57.635Z,99.99
2018-08-31T07:06:51.615Z,99.99
2018-08-31T07:07:52.431Z,99.99
2018-08-31T07:08:52.294Z,99.99
2018-08-31T07:09:58.548Z,99.99
2018-08-31T07:11:59.023Z,99.99
2018-08-31T07:12:59.962Z,99.99
2018-08-31T07:13:59.748Z,99.99
2018-08-31T07:15:21.054Z,99.99
2018-08-31T07:16:22.130Z,99.99
2018-08-31T07:17:21.689Z,99.99
2018-08-31T07:18:21.559Z,99.99
2018-08-31T07:19:21.655Z,99.99
2018-08-31T07:20:21.358Z,99.99
2018-08-31T07:22:06.052Z,99.99
2018-08-31T07:23:06.913Z,99.99
2018-08-31T07:24:06.688Z,99.99
2018-08-31T07:25:06.307Z,99.99
2018-08-31T07:26:06.266Z,99.99
2018-08-31T07:27:05.881Z,99.99
2018-08-31T07:28:06.638Z,99.99
2018-08-31T07:29:06.373Z,99.99
2018-08-31T07:30:06.686Z,99.99
2018-08-31T07:31:06.429Z,99.99
2018-08-31T07:32:06.262Z,99.99
2018-08-31T07:33:06.344Z,99.99
2018-08-31T07:34:07.228Z,99.99
2018-08-31T07:35:08.907Z,99.99
2018-08-31T07:36:07.409Z,99.99
2018-08-31T07:37:52.332Z,99.99
2018-08-31T07:38:52.826Z,99.99
2018-08-31T07:39:53.355Z,99.99
2018-08-31T07:40:52.060Z,99.99
2018-08-31T07:41:51.609Z,99.99
2018-08-31T07:42:51.444Z,99.99
2018-08-31T07:44:14.041Z,99.99
2018-08-31T07:45:57.254Z,99.99
2018-08-31T07:46:58.196Z,99.99
2018-08-31T07:47:57.853Z,99.99
2018-08-31T07:48:57.659Z,99.99
2018-08-31T07:49:57.360Z,99.99
2018-08-31T07:50:57.283Z,99.99
2018-08-31T07:51:58.263Z,99.99
2018-08-31T07:52:57.041Z,99.99
2018-08-31T07:53:57.900Z,99.99
2018-08-31T07:54:57.940Z,99.99
2018-08-31T07:55:58.022Z,99.99
2018-08-31T07:56:58.112Z,99.99
2018-08-31T07:57:57.670Z,99.99
2018-08-31T07:58:57.537Z,99.99
2018-08-31T07:59:57.211Z,99.99
2018-08-31T08:00:56.996Z,99.99
2018-08-31T08:01:57.853Z,99.99
2018-08-31T08:02:57.352Z,99.99
2018-08-31T08:03:57.003Z,99.99
2018-08-31T08:04:57.973Z,99.99
2018-08-31T08:05:57.981Z,99.99
2018-08-31T08:06:58.041Z,99.99
2018-08-31T08:07:57.789Z,99.99
2018-08-31T08:08:57.454Z,99.99
2018-08-31T08:09:57.301Z,99.99
2018-08-31T08:10:57.363Z,99.99
2018-08-31T08:11:57.444Z,99.99
2018-08-31T08:13:42.187Z,99.99
2018-08-31T08:14:43.085Z,99.99
2018-08-31T08:16:05.085Z,99.99
2018-08-31T08:17:04.948Z,99.99
2018-08-31T08:18:04.693Z,99.99
2018-08-31T08:19:05.975Z,99.99
2018-08-31T08:20:05.687Z,99.99
2018-08-31T08:21:05.708Z,99.99
2018-08-31T08:22:05.928Z,99.99
2018-08-31T08:23:48.784Z,99.99
2018-08-31T08:24:49.634Z,99.99
2018-08-31T08:25:49.413Z,99.99
2018-08-31T08:26:49.190Z,99.99
2018-08-31T08:27:49.191Z,99.99
2018-08-31T08:28:48.872Z,99.99
2018-08-31T08:29:48.623Z,99.99
2018-08-31T08:30:49.330Z,99.99
2018-08-31T08:31:49.088Z,99.99
2018-08-31T08:33:32.053Z,99.99
2018-08-31T08:34:54.777Z,99.99
2018-08-31T08:35:55.637Z,99.99
2018-08-31T08:36:55.930Z,99.99
2018-08-31T08:37:55.757Z,99.99
2018-08-31T08:38:55.762Z,99.99
2018-08-31T08:39:55.791Z,99.99
2018-08-31T08:40:55.917Z,99.99
2018-08-31T08:42:17.184Z,99.99
2018-08-31T08:43:17.042Z,99.99
2018-08-31T08:44:18.092Z,99.99
2018-08-31T08:45:17.694Z,99.99
2018-08-31T08:46:17.576Z,99.99
2018-08-31T08:47:17.400Z,99.99
2018-08-31T08:48:17.151Z,99.99
2018-08-31T08:49:17.390Z,99.99
2018-08-31T08:50:17.172Z,99.99
2018-08-31T08:51:17.748Z,99.99
2018-08-31T08:52:39.148Z,99.99
2018-08-31T08:53:40.209Z,99.99
2018-08-31T08:54:39.772Z,99.99
2018-08-31T08:55:39.555Z,99.99
2018-08-31T08:56:39.593Z,99.99
2018-08-31T08:57:39.261Z,99.99
2018-08-31T08:58:39.029Z,99.99
2018-08-31T08:59:39.759Z,99.99
2018-08-31T09:00:39.689Z,99.99
2018-08-31T09:01:39.386Z,99.99
2018-08-31T09:02:39.515Z,99.99
2018-08-31T09:04:00.840Z,99.99
2018-08-31T09:05:01.631Z,99.99
2018-08-31T09:06:01.504Z,99.99
2018-08-31T09:07:01.146Z,99.99
2018-08-31T09:08:01.765Z,99.99
2018-08-31T09:09:01.533Z,99.99
2018-08-31T09:10:01.658Z,99.99
2018-08-31T09:11:01.284Z,99.99
2018-08-31T09:12:01.979Z,99.99
2018-08-31T09:13:01.916Z,99.99
2018-08-31T09:14:01.725Z,99.99
2018-08-31T09:15:01.834Z,99.99
2018-08-31T09:16:01.483Z,99.99
2018-08-31T09:17:01.212Z,99.99
2018-08-31T09:18:02.016Z,99.99
2018-08-31T09:19:01.911Z,99.99
2018-08-31T09:20:01.669Z,99.99
2018-08-31T09:21:01.813Z,99.99
2018-08-31T09:22:01.395Z,99.99
2018-08-31T09:23:01.177Z,99.99
2018-08-31T09:24:01.127Z,99.99
2018-08-31T09:25:01.035Z,99.99
2018-08-31T09:26:01.840Z,99.99
2018-08-31T09:27:01.536Z,99.99
2018-08-31T09:28:01.341Z,99.99
2018-08-31T09:29:00.984Z,99.99
2018-08-31T09:30:23.125Z,99.99
2018-08-31T09:31:24.233Z,99.99
2018-08-31T09:32:24.184Z,99.99
2018-08-31T09:33:23.988Z,99.99
2018-08-31T09:34:46.729Z,99.99
2018-08-31T09:35:45.539Z,99.99
2018-08-31T09:36:45.457Z,99.99
2018-08-31T09:37:46.488Z,99.99
2018-08-31T09:38:45.696Z,99.99
2018-08-31T09:40:07.130Z,99.99
2018-08-31T09:41:07.908Z,99.99
2018-08-31T09:42:29.036Z,99.99
2018-08-31T09:43:51.373Z,99.99
2018-08-31T09:44:51.415Z,99.99
2018-08-31T09:45:51.343Z,99.99
2018-08-31T09:46:52.098Z,99.99
2018-08-31T09:47:51.997Z,99.99
2018-08-31T09:48:51.840Z,99.99
2018-08-31T09:49:51.614Z,99.99
2018-08-31T09:50:51.291Z,99.99
2018-08-31T09:52:13.696Z,99.99
2018-08-31T09:53:14.426Z,99.99
2018-08-31T09:54:14.428Z,99.99
2018-08-31T09:55:14.211Z,99.99
2018-08-31T09:56:14.267Z,99.99
2018-08-31T09:57:14.172Z,99.99
2018-08-31T09:58:14.206Z,99.99
2018-08-31T09:59:14.111Z,99.99
2018-08-31T10:00:14.301Z,99.99
2018-08-31T10:01:14.388Z,99.99
2018-08-31T10:02:36.158Z,99.99
2018-08-31T10:03:37.269Z,99.74
2018-08-31T10:04:37.353Z,99.99
2018-08-31T10:05:36.442Z,98.77
2018-08-31T10:06:36.340Z,98.10
2018-08-31T10:07:37.387Z,98.92
2018-08-31T10:08:36.362Z,99.30
2018-08-31T10:09:36.260Z,96.32
2018-08-31T10:10:59.899Z,96.89
2018-08-31T10:12:01.045Z,92.94
2018-08-31T10:12:59.789Z,94.06
2018-08-31T10:14:00.771Z,94.44
2018-08-31T10:15:22.754Z,94.73
2018-08-31T10:16:22.914Z,94.87
2018-08-31T10:17:22.832Z,93.71
2018-08-31T10:18:23.201Z,91.60
2018-08-31T10:19:23.289Z,88.12
2018-08-31T10:20:23.266Z,88.51
2018-08-31T10:21:23.532Z,87.06
2018-08-31T10:22:45.028Z,86.96
2018-08-31T10:23:45.861Z,86.48
2018-08-31T10:24:46.655Z,84.75
2018-08-31T10:25:45.824Z,84.07
2018-08-31T10:26:45.648Z,84.55
2018-08-31T10:28:09.016Z,83.88
2018-08-31T10:29:09.746Z,82.62
2018-08-31T10:30:09.568Z,83.40
2018-08-31T10:31:31.153Z,84.84
2018-08-31T10:32:53.900Z,86.62
2018-08-31T10:33:53.715Z,84.89
2018-08-31T10:34:54.867Z,84.89
2018-08-31T10:35:53.665Z,82.86
2018-08-31T10:36:54.515Z,83.09
2018-08-31T10:37:55.042Z,82.71
2018-08-31T10:38:53.872Z,80.58
2018-08-31T10:39:53.748Z,81.55
2018-08-31T10:40:53.711Z,79.43
2018-08-31T10:41:53.589Z,79.24
2018-08-31T10:42:54.586Z,79.43
2018-08-31T10:43:54.547Z,78.79
2018-08-31T10:44:54.231Z,78.99
2018-08-31T10:46:16.038Z,77.25
2018-08-31T10:47:16.125Z,77.83
2018-08-31T10:48:16.663Z,78.21
2018-08-31T10:49:16.533Z,78.92
2018-08-31T10:50:16.748Z,79.50
2018-08-31T10:51:16.573Z,77.51
2018-08-31T10:52:16.593Z,74.42
2018-08-31T10:53:16.703Z,72.49
2018-08-31T10:54:16.428Z,72.16
2018-08-31T10:55:16.266Z,72.36
2018-08-31T10:56:16.417Z,73.03
2018-08-31T10:57:16.114Z,71.97
2018-08-31T10:58:16.806Z,71.30
2018-08-31T10:59:38.247Z,72.64
2018-08-31T11:00:39.185Z,71.33
2018-08-31T11:01:39.151Z,70.59
2018-08-31T11:02:39.002Z,68.30
2018-08-31T11:03:38.790Z,66.50
2018-08-31T11:04:39.063Z,65.05
2018-08-31T11:05:38.574Z,64.37
2018-08-31T11:06:38.869Z,66.60
2018-08-31T11:07:38.771Z,66.14
2018-08-31T11:08:39.047Z,64.92
2018-08-31T11:09:38.837Z,64.65
2018-08-31T11:10:38.692Z,63.82
2018-08-31T11:11:38.468Z,61.88
2018-08-31T11:12:38.419Z,61.32
2018-08-31T11:13:39.312Z,58.48
2018-08-31T11:14:39.256Z,59.74
2018-08-31T11:15:39.113Z,60.64
2018-08-31T11:16:39.194Z,58.41
2018-08-31T11:17:39.082Z,58.70
2018-08-31T11:18:39.707Z,58.73
2018-08-31T11:19:39.417Z,58.83
2018-08-31T11:20:38.390Z,58.08
2018-08-31T11:21:39.057Z,57.18
2018-08-31T11:22:38.824Z,57.25
2018-08-31T11:23:38.755Z,57.80
2018-08-31T11:25:00.511Z,58.74
2018-08-31T11:26:22.932Z,59.55
2018-08-31T11:27:22.982Z,61.52
2018-08-31T11:28:23.037Z,60.94
2018-08-31T11:29:22.935Z,60.71
2018-08-31T11:30:22.619Z,59.91
2018-08-31T11:31:22.795Z,60.30
2018-08-31T11:32:46.622Z,59.84
2018-08-31T11:33:46.576Z,60.59
2018-08-31T11:35:08.217Z,62.30
2018-08-31T11:36:09.084Z,63.73
2018-08-31T11:37:08.936Z,63.63
2018-08-31T11:38:08.647Z,63.89
2018-08-31T11:39:08.446Z,64.47
2018-08-31T11:40:08.944Z,65.30
2018-08-31T11:41:08.745Z,65.40
2018-08-31T11:42:08.899Z,65.27
2018-08-31T11:43:31.591Z,64.86
2018-08-31T11:44:32.485Z,67.33
2018-08-31T11:45:31.309Z,67.81
2018-08-31T11:46:55.236Z,68.65
2018-08-31T11:47:55.378Z,69.77
2018-08-31T11:48:55.890Z,71.18
2018-08-31T11:49:55.300Z,71.66
2018-08-31T11:50:55.022Z,72.53
2018-08-31T11:51:54.979Z,73.58
2018-08-31T11:52:54.556Z,73.39
2018-08-31T11:53:55.309Z,74.45
2018-08-31T11:54:55.134Z,73.30
2018-08-31T11:55:55.100Z,73.68
2018-08-31T11:56:55.734Z,73.30
2018-08-31T11:57:55.517Z,73.39
2018-08-31T11:58:55.447Z,73.78
2018-08-31T11:59:55.552Z,72.53
2018-08-31T12:00:56.299Z,71.79
2018-08-31T12:01:55.305Z,72.95
2018-08-31T12:02:55.293Z,72.75
2018-08-31T12:03:55.345Z,73.58
2018-08-31T12:04:55.141Z,74.74
2018-08-31T12:05:55.168Z,73.68
2018-08-31T12:06:54.811Z,73.20
2018-08-31T12:07:54.754Z,72.85
2018-08-31T12:09:17.028Z,72.75
2018-08-31T12:10:17.069Z,72.53
2018-08-31T12:11:18.230Z,72.95
2018-08-31T12:12:17.394Z,73.91
2018-08-31T12:13:17.635Z,72.75
2018-08-31T12:14:17.715Z,72.60
2018-08-31T12:15:17.598Z,72.12
2018-08-31T12:16:17.448Z,71.25
2018-08-31T12:17:17.356Z,68.84
2018-08-31T12:18:17.533Z,67.97
2018-08-31T12:19:17.571Z,66.72
2018-08-31T12:20:17.665Z,66.62
2018-08-31T12:21:17.314Z,67.04
2018-08-31T12:22:17.219Z,67.81
2018-08-31T12:23:17.127Z,68.68
2018-08-31T12:24:17.580Z,67.04
2018-08-31T12:25:17.663Z,66.85
2018-08-31T12:26:17.616Z,66.75
2018-08-31T12:27:18.947Z,67.71
2018-08-31T12:28:39.381Z,66.27
2018-08-31T12:29:40.911Z,68.04
2018-08-31T12:30:39.747Z,67.85
2018-08-31T12:31:39.745Z,66.20
2018-08-31T12:32:39.425Z,66.08
2018-08-31T12:33:40.227Z,66.46
2018-08-31T12:34:40.960Z,66.91
2018-08-31T12:35:39.901Z,67.52
2018-08-31T12:36:40.398Z,67.43
2018-08-31T12:37:40.901Z,67.43
2018-08-31T12:38:39.609Z,66.85
2018-08-31T12:39:41.133Z,67.91
2018-08-31T12:40:39.911Z,68.87
2018-08-31T12:41:39.884Z,68.59
2018-08-31T12:42:39.448Z,67.43
2018-08-31T12:44:02.503Z,68.10
2018-08-31T12:45:02.932Z,68.77
2018-08-31T12:46:01.903Z,69.68
2018-08-31T12:47:02.851Z,69.39
2018-08-31T12:48:01.821Z,70.36
2018-08-31T12:49:02.984Z,70.26
2018-08-31T12:50:03.041Z,69.87
2018-08-31T12:51:03.075Z,69.35
2018-08-31T12:52:24.790Z,69.07
2018-08-31T12:53:25.882Z,69.64
2018-08-31T12:54:24.728Z,68.49
2018-08-31T12:55:24.951Z,68.52
2018-08-31T12:56:25.684Z,67.75
2018-08-31T12:57:25.172Z,66.85
2018-08-31T12:58:24.037Z,66.66
2018-08-31T12:59:25.407Z,66.56
2018-08-31T13:00:48.589Z,65.69
2018-08-31T13:01:47.594Z,65.01
2018-08-31T13:02:48.876Z,63.47
2018-08-31T13:03:47.759Z,64.56
2018-08-31T13:04:47.553Z,63.60
2018-08-31T13:05:47.421Z,64.18
2018-08-31T13:06:47.561Z,62.73
2018-08-31T13:07:47.807Z,63.70
2018-08-31T13:08:48.102Z,63.24
2018-08-31T13:09:47.217Z,62.86
2018-08-31T13:10:47.714Z,62.66
2018-08-31T13:11:48.112Z,61.80
2018-08-31T13:12:47.203Z,61.60
2018-08-31T13:13:47.332Z,62.66
2018-08-31T13:15:10.060Z,62.79
2018-08-31T13:16:08.870Z,62.98
2018-08-31T13:17:53.645Z,62.34
2018-08-31T13:18:54.155Z,61.98
2018-08-31T13:19:54.482Z,62.27
2018-08-31T13:20:52.561Z,60.24
2018-08-31T13:21:52.740Z,59.28
2018-08-31T13:22:52.747Z,60.72
2018-08-31T13:23:53.128Z,60.27
2018-08-31T13:24:53.161Z,59.98
2018-08-31T13:25:53.175Z,59.79
2018-08-31T13:26:53.323Z,60.75
2018-08-31T13:27:53.250Z,60.27
2018-08-31T13:28:53.225Z,60.37
2018-08-31T13:29:53.414Z,60.37
2018-08-31T13:30:52.459Z,60.08
2018-08-31T13:31:52.569Z,60.95
2018-08-31T13:32:52.652Z,60.72
2018-08-31T13:33:52.848Z,61.21